Terminal Aerodrome Forecast
Issued by NWS

Home | Current Version | Previous Version | Text Only | Print | Product List | Glossary On
Versions: 1 2 3 4 5 6 7 8 9 10 11 12 13 14 15 16 17 18 19 20 21 22 23 24 25 26 27 28 29 30
000
FTUS42 KKEY 232333
TAFMTH
TAF
KMTH 232333Z 2400/2424 17004KT P6SM SCT035 BKN090
     FM240600 17004KT P6SM VCSH SCT025 BKN200
     FM241800 24006KT P6SM VCTS SCT030CB BKN150=

USA.gov is the U.S. government's official web portal to all federal, state and local government web resources and services.